Mr. Mag — WDE7813 — position and weather

sailwx.info

Track history (hours):
 
Tides and Currents Weather Stations Pressure Air Temp Water Temp Dewpoint Dewpoint Depression Visibility Wind Speed Wind Dir Waves Ship Positions

Mr. Mag

Owner: Tandi Marine, Inc., Larose, LA. More information available from US FCC via Universal Licensing System and Coast Guard Vessel Documentation Center.

Last reported at 2017-Jan-13 06:16 UTC. Time now 2017-Jan-17 23:35 UTC.
Position N 29°32' W 092°18'.

Length 46 m; draft 2.5 m.

Type: Passenger vessel. MMSI: 367397990.

Date/timePositionNaut miles runAvg speedWind from/ knotsBaromVisibWave heightAir tempDewpointWater temp
2017-Jan-13 06:16N 29°32' W 092°18'811.9
2017-Jan-13 05:34N 29°40' W 092°15'7 7.3
2017-Jan-13 04:33N 29°47' W 092°11'0 0.0
2017-Jan-13 03:33N 29°47' W 092°11'15 0.7
2017-Jan-12 07:16N 29°34' W 092°18'912.6
2017-Jan-12 06:33N 29°42' W 092°15'6 5.7
2017-Jan-12 05:33N 29°47' W 092°11'0 0.0
2017-Jan-12 04:34N 29°47' W 092°11'0 0.0
2017-Jan-12 03:34N 29°47' W 092°11'0 0.3
2017-Jan-12 02:34N 29°47' W 092°11'0 0.0
2017-Jan-12 01:34N 29°47' W 092°11'0 0.3
2017-Jan-12 00:34N 29°47' W 092°11'0 0.0
2017-Jan-11 23:34N 29°47' W 092°11'6 6.1
2017-Jan-11 22:34N 29°42' W 092°15'9 0.6
2017-Jan-11 07:11N 29°33' W 092°18'1015.6
2017-Jan-11 06:33N 29°42' W 092°15'5 5.4
2017-Jan-11 05:33N 29°47' W 092°11'0 0.0
2017-Jan-11 04:33N 29°47' W 092°11'0 0.0
2017-Jan-11 03:33N 29°47' W 092°11'0 0.0
2017-Jan-11 02:33N 29°47' W 092°11'0 0.0
2017-Jan-11 01:34N 29°47' W 092°11'0 0.0
2017-Jan-11 00:33N 29°47' W 092°11'0 0.0
2017-Jan-10 23:33N 29°47' W 092°11'0 0.0
2017-Jan-10 22:34N 29°47' W 092°11'0 0.0
2017-Jan-10 21:33N 29°47' W 092°11'0 0.0
2017-Jan-10 20:33N 29°47' W 092°11'1 0.7
2017-Jan-10 19:34N 29°46' W 092°11'15 1.3
2017-Jan-10 07:33N 29°32' W 092°18'1313.4
2017-Jan-10 06:34N 29°45' W 092°13'2 0.6
2017-Jan-10 02:33N 29°47' W 092°11'0 0.0
2017-Jan-10 01:33N 29°47' W 092°11'0 0.0
2017-Jan-10 00:33N 29°47' W 092°11'0 0.0
2017-Jan-09 23:33N 29°47' W 092°11'0 0.3
2017-Jan-09 22:33N 29°47' W 092°11'0 0.0
2017-Jan-09 21:33N 29°47' W 092°11'0 0.3
2017-Jan-09 20:33N 29°47' W 092°11'20 1.6
2017-Jan-09 08:27N 29°29' W 092°19'1617.7
2017-Jan-09 07:34N 29°44' W 092°15'4 4.3
2017-Jan-09 06:33N 29°47' W 092°11'0 0.0
2017-Jan-09 05:33N 29°47' W 092°11'  
2017-Jan-06 04:33N 29°47' W 092°11'0 0.0
2017-Jan-06 03:33N 29°47' W 092°11'0 0.0
2017-Jan-06 02:33N 29°47' W 092°11'0 0.0
2017-Jan-06 01:33N 29°47' W 092°11'0 0.1
2017-Jan-06 00:33N 29°47' W 092°11'0 0.0
2017-Jan-05 23:33N 29°47' W 092°11'0 0.0
2017-Jan-05 22:33N 29°47' W 092°11'0 0.0
2017-Jan-05 21:33N 29°47' W 092°11'0 0.0
2017-Jan-05 20:33N 29°47' W 092°11'0 0.3
2017-Jan-05 19:33N 29°47' W 092°11'17 1.4
2017-Jan-05 07:13N 29°31' W 092°19'1015.3
2017-Jan-05 06:33N 29°41' W 092°15'7 7.1
2017-Jan-05 05:33N 29°47' W 092°11'0 0.0
2017-Jan-04 00:33N 29°47' W 092°11'0 0.0
2017-Jan-03 23:33N 29°47' W 092°11'0 0.0
2017-Jan-03 22:33N 29°47' W 092°11'0 0.0
2017-Jan-03 21:33N 29°47' W 092°11'0 0.0
2017-Jan-03 20:34N 29°47' W 092°11'0 0.0
2017-Jan-03 19:33N 29°47' W 092°11'0 0.0
2017-Jan-03 18:33N 29°47' W 092°11'1413.6
2017-Jan-03 17:33N 29°35' W 092°18'40 4.8
2017-Jan-03 09:16N 28°56' W 092°31'1418.7
2017-Jan-03 08:30N 29°10' W 092°26'1616.6
2017-Jan-03 07:32N 29°25' W 092°21'1717.3
2017-Jan-03 06:33N 29°41' W 092°15'  
Track history (hours):
 
Tides and Currents Weather Stations Pressure Air Temp Water Temp Dewpoint Dewpoint Depression Visibility Wind Speed Wind Dir Waves Ship Positions

Mr. Mag

Owner: Tandi Marine, Inc., Larose, LA. More information available from US FCC via Universal Licensing System and Coast Guard Vessel Documentation Center.

Last reported at 2017-Jan-13 06:16 UTC. Time now 2017-Jan-17 23:35 UTC.
Position N 29°32' W 092°18'.

Length 46 m; draft 2.5 m.

Type: Passenger vessel. MMSI: 367397990.

Date/timePositionNaut miles runAvg speedWind from/ knotsBaromVisibWave heightAir tempDewpointWater temp
2017-Jan-13 06:16N 29°32' W 092°18'811.9
2017-Jan-13 05:34N 29°40' W 092°15'7 7.3
2017-Jan-13 04:33N 29°47' W 092°11'0 0.0
2017-Jan-13 03:33N 29°47' W 092°11'15 0.7
2017-Jan-12 07:16N 29°34' W 092°18'912.6
2017-Jan-12 06:33N 29°42' W 092°15'6 5.7
2017-Jan-12 05:33N 29°47' W 092°11'0 0.0
2017-Jan-12 04:34N 29°47' W 092°11'0 0.0
2017-Jan-12 03:34N 29°47' W 092°11'0 0.3
2017-Jan-12 02:34N 29°47' W 092°11'0 0.0
2017-Jan-12 01:34N 29°47' W 092°11'0 0.3
2017-Jan-12 00:34N 29°47' W 092°11'0 0.0
2017-Jan-11 23:34N 29°47' W 092°11'6 6.1
2017-Jan-11 22:34N 29°42' W 092°15'9 0.6
2017-Jan-11 07:11N 29°33' W 092°18'1015.6
2017-Jan-11 06:33N 29°42' W 092°15'5 5.4
2017-Jan-11 05:33N 29°47' W 092°11'0 0.0
2017-Jan-11 04:33N 29°47' W 092°11'0 0.0
2017-Jan-11 03:33N 29°47' W 092°11'0 0.0
2017-Jan-11 02:33N 29°47' W 092°11'0 0.0
2017-Jan-11 01:34N 29°47' W 092°11'0 0.0
2017-Jan-11 00:33N 29°47' W 092°11'0 0.0
2017-Jan-10 23:33N 29°47' W 092°11'0 0.0
2017-Jan-10 22:34N 29°47' W 092°11'0 0.0
2017-Jan-10 21:33N 29°47' W 092°11'0 0.0
2017-Jan-10 20:33N 29°47' W 092°11'1 0.7
2017-Jan-10 19:34N 29°46' W 092°11'15 1.3
2017-Jan-10 07:33N 29°32' W 092°18'1313.4
2017-Jan-10 06:34N 29°45' W 092°13'2 0.6
2017-Jan-10 02:33N 29°47' W 092°11'0 0.0
2017-Jan-10 01:33N 29°47' W 092°11'0 0.0
2017-Jan-10 00:33N 29°47' W 092°11'0 0.0
2017-Jan-09 23:33N 29°47' W 092°11'0 0.3
2017-Jan-09 22:33N 29°47' W 092°11'0 0.0
2017-Jan-09 21:33N 29°47' W 092°11'0 0.3
2017-Jan-09 20:33N 29°47' W 092°11'20 1.6
2017-Jan-09 08:27N 29°29' W 092°19'1617.7
2017-Jan-09 07:34N 29°44' W 092°15'4 4.3
2017-Jan-09 06:33N 29°47' W 092°11'0 0.0
2017-Jan-09 05:33N 29°47' W 092°11'  
2017-Jan-06 04:33N 29°47' W 092°11'0 0.0
2017-Jan-06 03:33N 29°47' W 092°11'0 0.0
2017-Jan-06 02:33N 29°47' W 092°11'0 0.0
2017-Jan-06 01:33N 29°47' W 092°11'0 0.1
2017-Jan-06 00:33N 29°47' W 092°11'0 0.0
2017-Jan-05 23:33N 29°47' W 092°11'0 0.0
2017-Jan-05 22:33N 29°47' W 092°11'0 0.0
2017-Jan-05 21:33N 29°47' W 092°11'0 0.0
2017-Jan-05 20:33N 29°47' W 092°11'0 0.3
2017-Jan-05 19:33N 29°47' W 092°11'17 1.4
2017-Jan-05 07:13N 29°31' W 092°19'1015.3
2017-Jan-05 06:33N 29°41' W 092°15'7 7.1
2017-Jan-05 05:33N 29°47' W 092°11'0 0.0
2017-Jan-04 00:33N 29°47' W 092°11'0 0.0
2017-Jan-03 23:33N 29°47' W 092°11'0 0.0
2017-Jan-03 22:33N 29°47' W 092°11'0 0.0
2017-Jan-03 21:33N 29°47' W 092°11'0 0.0
2017-Jan-03 20:34N 29°47' W 092°11'0 0.0
2017-Jan-03 19:33N 29°47' W 092°11'0 0.0
2017-Jan-03 18:33N 29°47' W 092°11'1413.6
2017-Jan-03 17:33N 29°35' W 092°18'40 4.8
2017-Jan-03 09:16N 28°56' W 092°31'1418.7
2017-Jan-03 08:30N 29°10' W 092°26'1616.6
2017-Jan-03 07:32N 29°25' W 092°21'1717.3
2017-Jan-03 06:33N 29°41' W 092°15'  

Dump ship's entire track history